Time;durP1;ratioP1;P1;durP2;ratioP2;P2;SDS_P1;SDS_P2;PMS_P1;PMS_P2;Temp;Humidity;BMP_temperature;BMP_pressure;BME280_temperature;BME280_humidity;BME280_pressure;Samples;Min_cycle;Max_cycle;Signal;HPM_P1;HPM_P2
2023/01/20 00:00:04;;;;;;;;;;;;;;;;;;1042180;28;4386;-52
2023/01/20 00:00:37;;;;;;;;;;;;;;;;;;1046998;28;2663;-49
2023/01/20 00:01:27;;;;;;;;;;;;;;;;;;1040887;28;4079;-51
2023/01/20 00:01:58;;;;;;;;;;;;;;;;;;1038815;28;4045;-51
2023/01/20 00:02:28;;;;;;;;;;;;;;;;;;1038120;28;2236;-47
2023/01/20 00:02:58;;;;;;;;;;;;;;;;;;1042900;28;3946;-49
2023/01/20 00:03:28;;;;;;;;;;;;;;;;;;1044180;28;1615;-50
2023/01/20 00:03:59;;;;;;;;;;;;;;;;;;1044130;28;4228;-49
2023/01/20 00:04:29;;;;;;;;;;;;;;;;;;1041421;28;2544;-48
2023/01/20 00:05:06;;;;;;;;;;;;;;;;;;1039376;28;4212;-49
2023/01/20 00:05:36;;;;;;;;;;;;;;;;;;1039598;28;2133;-51
2023/01/20 00:06:07;;;;;;;;;;;;;;;;;;1041310;28;4246;-47
2023/01/20 00:06:38;;;;;;;;;;;;;;;;;;1042608;28;2365;-46
2023/01/20 00:07:08;;;;;;;;;;;;;;;;;;1044194;28;3952;-48
2023/01/20 00:07:38;;;;;;;;;;;;;;;;;;1043035;28;2940;-47
2023/01/20 00:08:08;;;;;;;;;;;;;;;;;;1043160;28;3865;-47
2023/01/20 00:08:39;;;;;;;;;;;;;;;;;;1044473;28;2915;-50
2023/01/20 00:09:12;;;;;;;;;;;;;;;;;;1045220;28;4072;-51
2023/01/20 00:09:42;;;;;;;;;;;;;;;;;;1037781;28;3512;-49
2023/01/20 00:10:13;;;;;;;;;;;;;;;;;;1036121;28;3784;-49
2023/01/20 00:10:43;;;;;;;;;;;;;;;;;;1034576;28;2946;-49
2023/01/20 00:11:13;;;;;;;;;;;;;;;;;;1035540;28;4413;-51
2023/01/20 00:11:50;;;;;;;;;;;;;;;;;;1039723;28;2643;-48
2023/01/20 00:12:21;;;;;;;;;;;;;;;;;;1040067;28;3938;-48
2023/01/20 00:12:51;;;;;;;;;;;;;;;;;;1040938;28;1703;-49
2023/01/20 00:13:21;;;;;;;;;;;;;;;;;;1038956;28;3909;-48
2023/01/20 00:13:53;;;;;;;;;;;;;;;;;;1040344;28;2509;-48
2023/01/20 00:14:24;;;;;;;;;;;;;;;;;;1038664;28;4309;-49
2023/01/20 00:14:54;;;;;;;;;;;;;;;;;;1039504;28;3824;-50
2023/01/20 00:15:25;;;;;;;;;;;;;;;;;;1039713;28;2485;-49
2023/01/20 00:15:55;;;;;;;;;;;;;;;;;;1039752;28;4145;-49
2023/01/20 00:16:26;;;;;;;;;;;;;;;;;;1040882;28;2421;-50
2023/01/20 00:16:58;;;;;;;;;;;;;;;;;;1041026;28;4042;-49
2023/01/20 00:17:29;;;;;;;;;;;;;;;;;;1039686;28;2237;-47
2023/01/20 00:17:59;;;;;;;;;;;;;;;;;;1038197;28;4405;-48
2023/01/20 00:18:29;;;;;;;;;;;;;;;;;;1037122;28;3106;-46
2023/01/20 00:18:59;;;;;;;;;;;;;;;;;;1039196;28;4043;-50
2023/01/20 00:19:30;;;;;;;;;;;;;;;;;;1037905;28;2911;-49
2023/01/20 00:20:00;;;;;;;;;;;;;;;;;;1039958;28;3968;-50
2023/01/20 00:20:30;;;;;;;;;;;;;;;;;;1039740;28;2832;-51
2023/01/20 00:21:04;;;;;;;;;;;;;;;;;;1038651;28;3935;-48
2023/01/20 00:21:35;;;;;;;;;;;;;;;;;;1040944;28;2994;-50
2023/01/20 00:22:05;;;;;;;;;;;;;;;;;;1040730;28;4382;-49
2023/01/20 00:22:41;;;;;;;;;;;;;;;;;;1039865;28;2278;-49
2023/01/20 00:23:11;;;;;;;;;;;;;;;;;;1040235;28;4241;-46
2023/01/20 00:23:41;;;;;;;;;;;;;;;;;;1039087;28;1943;-49
2023/01/20 00:24:12;;;;;;;;;;;;;;;;;;1038667;28;4461;-47
2023/01/20 00:24:42;;;;;;;;;;;;;;;;;;1040570;28;2863;-50
2023/01/20 00:25:12;;;;;;;;;;;;;;;;;;1037634;28;4329;-48
2023/01/20 00:25:42;;;;;;;;;;;;;;;;;;1038646;28;2911;-47
2023/01/20 00:26:15;;;;;;;;;;;;;;;;;;1037735;28;4447;-48
2023/01/20 00:26:45;;;;;;;;;;;;;;;;;;1041007;28;2967;-49
2023/01/20 00:27:15;;;;;;;;;;;;;;;;;;1038898;28;4039;-49
2023/01/20 00:27:46;;;;;;;;;;;;;;;;;;1041358;28;2985;-50
2023/01/20 00:28:16;;;;;;;;;;;;;;;;;;1039368;28;3894;-50
2023/01/20 00:28:47;;;;;;;;;;;;;;;;;;1039526;28;2315;-48
2023/01/20 00:29:17;;;;;;;;;;;;;;;;;;1039346;28;3844;-50
2023/01/20 00:29:47;;;;;;;;;;;;;;;;;;1041498;28;2820;-54
2023/01/20 00:30:17;;;;;;;;;;;;;;;;;;1037636;28;4025;-50
2023/01/20 00:30:48;;;;;;;;;;;;;;;;;;1038066;28;1477;-51
2023/01/20 00:31:19;;;;;;;;;;;;;;;;;;1037405;28;4058;-48
2023/01/20 00:31:50;;;;;;;;;;;;;;;;;;1039620;28;1966;-47
2023/01/20 00:32:20;;;;;;;;;;;;;;;;;;1040302;28;3736;-47
2023/01/20 00:32:51;;;;;;;;;;;;;;;;;;1044361;28;3155;-46
2023/01/20 00:33:21;;;;;;;;;;;;;;;;;;1043987;28;3863;-50
2023/01/20 00:33:58;;;;;;;;;;;;;;;;;;1044879;28;4227;-48
2023/01/20 00:34:29;;;;;;;;;;;;;;;;;;1045405;28;2679;-49
2023/01/20 00:34:59;;;;;;;;;;;;;;;;;;1038610;28;4090;-49
2023/01/20 00:35:29;;;;;;;;;;;;;;;;;;1040660;28;1831;-49
2023/01/20 00:35:59;;;;;;;;;;;;;;;;;;1038846;28;4604;-49
2023/01/20 00:36:30;;;;;;;;;;;;;;;;;;1038430;28;2672;-48
2023/01/20 00:37:01;;;;;;;;;;;;;;;;;;1039734;28;4035;-46
2023/01/20 00:37:31;;;;;;;;;;;;;;;;;;1039209;28;2491;-48
2023/01/20 00:38:01;;;;;;;;;;;;;;;;;;1039583;28;3876;-47
2023/01/20 00:38:32;;;;;;;;;;;;;;;;;;1037760;28;2822;-49
2023/01/20 00:39:02;;;;;;;;;;;;;;;;;;1039463;28;4438;-46
2023/01/20 00:39:32;;;;;;;;;;;;;;;;;;1038543;28;2766;-50
2023/01/20 00:40:03;;;;;;;;;;;;;;;;;;1039102;28;4047;-47
2023/01/20 00:40:33;;;;;;;;;;;;;;;;;;1042209;28;2797;-49
2023/01/20 00:41:04;;;;;;;;;;;;;;;;;;1038640;28;4124;-51
2023/01/20 00:41:34;;;;;;;;;;;;;;;;;;1040788;28;2823;-49
2023/01/20 00:42:04;;;;;;;;;;;;;;;;;;1040172;28;4441;-49
2023/01/20 00:42:34;;;;;;;;;;;;;;;;;;1039793;28;2905;-52
2023/01/20 00:43:05;;;;;;;;;;;;;;;;;;1040749;28;3950;-47
2023/01/20 00:43:35;;;;;;;;;;;;;;;;;;1042484;28;1990;-50
2023/01/20 00:44:06;;;;;;;;;;;;;;;;;;1039511;28;4134;-47
2023/01/20 00:44:36;;;;;;;;;;;;;;;;;;1039930;28;2474;-50
2023/01/20 00:45:06;;;;;;;;;;;;;;;;;;1039769;28;4209;-48
2023/01/20 00:45:37;;;;;;;;;;;;;;;;;;1038705;28;2730;-48
2023/01/20 00:46:07;;;;;;;;;;;;;;;;;;1037923;28;4477;-49
2023/01/20 00:46:38;;;;;;;;;;;;;;;;;;1039217;28;2237;-49
2023/01/20 00:47:08;;;;;;;;;;;;;;;;;;1038930;28;3992;-49
2023/01/20 00:47:38;;;;;;;;;;;;;;;;;;1040896;28;2874;-49
2023/01/20 00:48:08;;;;;;;;;;;;;;;;;;1041630;28;5353;-47
2023/01/20 00:48:39;;;;;;;;;;;;;;;;;;1039975;28;2924;-47
2023/01/20 00:49:11;;;;;;;;;;;;;;;;;;1033549;28;4042;-51
2023/01/20 00:49:41;;;;;;;;;;;;;;;;;;1037853;28;2896;-49
2023/01/20 00:50:11;;;;;;;;;;;;;;;;;;1039843;28;4054;-47
2023/01/20 00:50:41;;;;;;;;;;;;;;;;;;1040886;28;3371;-48
2023/01/20 00:51:12;;;;;;;;;;;;;;;;;;1043363;28;4034;-49
2023/01/20 00:51:42;;;;;;;;;;;;;;;;;;1044087;28;2126;-50
2023/01/20 00:52:13;;;;;;;;;;;;;;;;;;1043314;28;4012;-49
2023/01/20 00:52:43;;;;;;;;;;;;;;;;;;1039988;28;2496;-45
2023/01/20 00:53:13;;;;;;;;;;;;;;;;;;1038406;28;4202;-51
2023/01/20 00:53:43;;;;;;;;;;;;;;;;;;1041044;28;2390;-49
2023/01/20 00:54:14;;;;;;;;;;;;;;;;;;1038263;28;4032;-50
2023/01/20 00:54:44;;;;;;;;;;;;;;;;;;1040820;28;1938;-48
2023/01/20 00:55:14;;;;;;;;;;;;;;;;;;1040300;28;3964;-49
2023/01/20 00:55:45;;;;;;;;;;;;;;;;;;1041544;28;2106;-48
2023/01/20 00:56:15;;;;;;;;;;;;;;;;;;1039045;28;3823;-51
2023/01/20 00:56:45;;;;;;;;;;;;;;;;;;1038593;28;3028;-46
2023/01/20 00:57:16;;;;;;;;;;;;;;;;;;1038967;28;3883;-51
2023/01/20 00:57:46;;;;;;;;;;;;;;;;;;1038109;28;2676;-49
2023/01/20 00:58:16;;;;;;;;;;;;;;;;;;1038726;28;4474;-48
2023/01/20 00:58:46;;;;;;;;;;;;;;;;;;1040952;28;2995;-51
2023/01/20 00:59:17;;;;;;;;;;;;;;;;;;1038105;28;3836;-47
2023/01/20 00:59:47;;;;;;;;;;;;;;;;;;1039629;28;1870;-48
2023/01/20 01:00:17;;;;;;;;;;;;;;;;;;1039573;28;4075;-48
2023/01/20 01:00:48;;;;;;;;;;;;;;;;;;1041052;28;2566;-47
2023/01/20 01:01:19;;;;;;;;;;;;;;;;;;1040024;28;4138;-47
2023/01/20 01:01:49;;;;;;;;;;;;;;;;;;1039242;28;2745;-52
2023/01/20 01:02:19;;;;;;;;;;;;;;;;;;1039587;28;3786;-50
2023/01/20 01:02:49;;;;;;;;;;;;;;;;;;1040838;28;2752;-48
2023/01/20 01:03:20;;;;;;;;;;;;;;;;;;1039416;28;4027;-47
2023/01/20 01:03:53;;;;;;;;;;;;;;;;;;1040741;28;2640;-47
2023/01/20 01:04:23;;;;;;;;;;;;;;;;;;1039473;28;3804;-49
2023/01/20 01:04:53;;;;;;;;;;;;;;;;;;1039199;28;2045;-51
2023/01/20 01:05:23;;;;;;;;;;;;;;;;;;1039678;28;4036;-48
2023/01/20 01:05:54;;;;;;;;;;;;;;;;;;1040898;28;3029;-47
2023/01/20 01:06:24;;;;;;;;;;;;;;;;;;1040953;28;3888;-49
2023/01/20 01:06:54;;;;;;;;;;;;;;;;;;1040135;28;3876;-49
2023/01/20 01:07:24;;;;;;;;;;;;;;;;;;1041115;28;2604;-53
2023/01/20 01:07:55;;;;;;;;;;;;;;;;;;1041434;28;4431;-47
2023/01/20 01:08:25;;;;;;;;;;;;;;;;;;1039386;28;3131;-48
2023/01/20 01:08:56;;;;;;;;;;;;;;;;;;1041891;28;3951;-48
2023/01/20 01:09:26;;;;;;;;;;;;;;;;;;1040172;28;1987;-53
2023/01/20 01:09:56;;;;;;;;;;;;;;;;;;1039306;28;3824;-47
2023/01/20 01:10:26;;;;;;;;;;;;;;;;;;1039363;28;1705;-54
2023/01/20 01:10:57;;;;;;;;;;;;;;;;;;1042193;28;3959;-48
2023/01/20 01:11:27;;;;;;;;;;;;;;;;;;1039557;28;2799;-50
2023/01/20 01:12:10;;;;;;;;;;;;;;;;;;1040404;28;4384;-47
2023/01/20 01:12:48;;;;;;;;;;;;;;;;;;1041688;28;2652;-49
2023/01/20 01:13:18;;;;;;;;;;;;;;;;;;1042358;28;4030;-47
2023/01/20 01:13:48;;;;;;;;;;;;;;;;;;1040411;28;2396;-49
2023/01/20 01:14:18;;;;;;;;;;;;;;;;;;1041154;28;3988;-47
2023/01/20 01:14:48;;;;;;;;;;;;;;;;;;1039045;28;2816;-49
2023/01/20 01:15:19;;;;;;;;;;;;;;;;;;1038614;28;3890;-49
2023/01/20 01:15:49;;;;;;;;;;;;;;;;;;1039154;28;2876;-48
2023/01/20 01:16:19;;;;;;;;;;;;;;;;;;1039107;28;4222;-49
2023/01/20 01:16:49;;;;;;;;;;;;;;;;;;1039350;28;2828;-51
2023/01/20 01:17:22;;;;;;;;;;;;;;;;;;1037034;28;3946;-48
2023/01/20 01:17:53;;;;;;;;;;;;;;;;;;1041078;28;2196;-48
2023/01/20 01:18:23;;;;;;;;;;;;;;;;;;1037481;28;4300;-49
2023/01/20 01:18:53;;;;;;;;;;;;;;;;;;1039566;28;2947;-48
2023/01/20 01:19:24;;;;;;;;;;;;;;;;;;1038313;28;3942;-47
2023/01/20 01:19:54;;;;;;;;;;;;;;;;;;1038244;28;3956;-50
2023/01/20 01:20:25;;;;;;;;;;;;;;;;;;1039041;28;2783;-50
2023/01/20 01:20:56;;;;;;;;;;;;;;;;;;1041233;28;3883;-47
2023/01/20 01:21:26;;;;;;;;;;;;;;;;;;1040446;28;3244;-49
2023/01/20 01:21:56;;;;;;;;;;;;;;;;;;1040517;28;3893;-52
2023/01/20 01:22:26;;;;;;;;;;;;;;;;;;1040150;28;2771;-47
2023/01/20 01:22:57;;;;;;;;;;;;;;;;;;1040191;28;4017;-46
2023/01/20 01:23:27;;;;;;;;;;;;;;;;;;1040568;28;2146;-48
2023/01/20 01:23:57;;;;;;;;;;;;;;;;;;1041926;28;4396;-49
2023/01/20 01:24:27;;;;;;;;;;;;;;;;;;1041713;28;2572;-47
2023/01/20 01:24:58;;;;;;;;;;;;;;;;;;1039535;28;4304;-48
2023/01/20 01:25:28;;;;;;;;;;;;;;;;;;1041051;28;2084;-47
2023/01/20 01:25:58;;;;;;;;;;;;;;;;;;1042364;28;3953;-51
2023/01/20 01:26:28;;;;;;;;;;;;;;;;;;1042452;28;2357;-51
2023/01/20 01:27:06;;;;;;;;;;;;;;;;;;1038082;28;3952;-50
2023/01/20 01:27:36;;;;;;;;;;;;;;;;;;1041368;28;2648;-50
2023/01/20 01:28:06;;;;;;;;;;;;;;;;;;1039096;28;4256;-50
2023/01/20 01:28:37;;;;;;;;;;;;;;;;;;1039262;28;2619;-48
2023/01/20 01:29:07;;;;;;;;;;;;;;;;;;1040296;28;4076;-47
2023/01/20 01:29:37;;;;;;;;;;;;;;;;;;1039616;28;2006;-47
2023/01/20 01:30:08;;;;;;;;;;;;;;;;;;1039027;28;4513;-46
2023/01/20 01:30:38;;;;;;;;;;;;;;;;;;1041740;28;2653;-48
2023/01/20 01:31:09;;;;;;;;;;;;;;;;;;1041229;28;4411;-50
2023/01/20 01:31:39;;;;;;;;;;;;;;;;;;1040812;28;2734;-47
2023/01/20 01:32:09;;;;;;;;;;;;;;;;;;1039231;28;4156;-49
2023/01/20 01:32:40;;;;;;;;;;;;;;;;;;1041430;28;2782;-50
2023/01/20 01:33:10;;;;;;;;;;;;;;;;;;1039819;28;4052;-48
2023/01/20 01:33:40;;;;;;;;;;;;;;;;;;1040739;28;1803;-52
2023/01/20 01:34:11;;;;;;;;;;;;;;;;;;1040022;28;4213;-49
2023/01/20 01:34:41;;;;;;;;;;;;;;;;;;1042692;28;1806;-50
2023/01/20 01:35:11;;;;;;;;;;;;;;;;;;1041016;28;4234;-48
2023/01/20 01:35:41;;;;;;;;;;;;;;;;;;1041411;28;2863;-46
2023/01/20 01:36:12;;;;;;;;;;;;;;;;;;1040184;28;4211;-48
2023/01/20 01:36:43;;;;;;;;;;;;;;;;;;1040137;28;1795;-52
2023/01/20 01:37:13;;;;;;;;;;;;;;;;;;1040159;28;4038;-49
2023/01/20 01:37:43;;;;;;;;;;;;;;;;;;1039444;28;2355;-52
2023/01/20 01:38:14;;;;;;;;;;;;;;;;;;1040864;28;4061;-49
2023/01/20 01:38:44;;;;;;;;;;;;;;;;;;1040002;28;2439;-47
2023/01/20 01:39:14;;;;;;;;;;;;;;;;;;1039842;28;4447;-51
2023/01/20 01:39:44;;;;;;;;;;;;;;;;;;1039144;28;2637;-49
2023/01/20 01:40:15;;;;;;;;;;;;;;;;;;1038778;28;4083;-50
2023/01/20 01:40:48;;;;;;;;;;;;;;;;;;1041913;28;2793;-49
2023/01/20 01:41:19;;;;;;;;;;;;;;;;;;1040452;28;4387;-49
2023/01/20 01:41:49;;;;;;;;;;;;;;;;;;1040899;28;2255;-49
2023/01/20 01:42:22;;;;;;;;;;;;;;;;;;1039172;28;4062;-47
2023/01/20 01:42:52;;;;;;;;;;;;;;;;;;1039114;28;1849;-46
2023/01/20 01:43:24;;;;;;;;;;;;;;;;;;1038832;28;3922;-51
2023/01/20 01:43:58;;;;;;;;;;;;;;;;;;1039870;28;1998;-50
2023/01/20 01:44:30;;;;;;;;;;;;;;;;;;1039553;28;3857;-48
2023/01/20 01:45:06;;;;;;;;;;;;;;;;;;1040623;28;4021;-48
2023/01/20 01:45:37;;;;;;;;;;;;;;;;;;1041505;28;1675;-51
2023/01/20 01:46:07;;;;;;;;;;;;;;;;;;1041123;28;3945;-50
2023/01/20 01:46:38;;;;;;;;;;;;;;;;;;1043072;28;2309;-52
2023/01/20 01:47:08;;;;;;;;;;;;;;;;;;1038845;28;4397;-51
2023/01/20 01:47:38;;;;;;;;;;;;;;;;;;1039555;28;2941;-52
2023/01/20 01:48:09;;;;;;;;;;;;;;;;;;1040160;28;4417;-46
2023/01/20 01:48:42;;;;;;;;;;;;;;;;;;1041927;28;1641;-48
2023/01/20 01:49:15;;;;;;;;;;;;;;;;;;1039056;28;4039;-49
2023/01/20 01:49:46;;;;;;;;;;;;;;;;;;1040685;28;3069;-47
2023/01/20 01:50:19;;;;;;;;;;;;;;;;;;1039368;28;4184;-48
2023/01/20 01:50:52;;;;;;;;;;;;;;;;;;1041399;28;2513;-48
2023/01/20 01:51:24;;;;;;;;;;;;;;;;;;1040568;28;4017;-49
2023/01/20 01:51:54;;;;;;;;;;;;;;;;;;1041986;28;4058;-49
2023/01/20 01:52:25;;;;;;;;;;;;;;;;;;1040989;28;1929;-49
2023/01/20 01:52:55;;;;;;;;;;;;;;;;;;1040846;28;3940;-48
2023/01/20 01:53:26;;;;;;;;;;;;;;;;;;1039498;28;1795;-50
2023/01/20 01:54:08;;;;;;;;;;;;;;;;;;1041781;28;3961;-47
2023/01/20 01:54:41;;;;;;;;;;;;;;;;;;1041208;28;1766;-50
2023/01/20 01:55:12;;;;;;;;;;;;;;;;;;1040952;28;4382;-47
2023/01/20 01:55:46;;;;;;;;;;;;;;;;;;1040120;28;2453;-49
2023/01/20 01:56:16;;;;;;;;;;;;;;;;;;1040402;28;3932;-49
2023/01/20 01:56:47;;;;;;;;;;;;;;;;;;1041379;28;1949;-48
2023/01/20 01:57:18;;;;;;;;;;;;;;;;;;1039689;28;3821;-47
2023/01/20 01:57:48;;;;;;;;;;;;;;;;;;1041316;28;2919;-48
2023/01/20 01:58:22;;;;;;;;;;;;;;;;;;1040429;28;4055;-47
2023/01/20 01:58:55;;;;;;;;;;;;;;;;;;1039221;28;1781;-48
2023/01/20 01:59:26;;;;;;;;;;;;;;;;;;1039273;28;3835;-47
2023/01/20 01:59:56;;;;;;;;;;;;;;;;;;1038819;28;4065;-46
2023/01/20 02:00:27;;;;;;;;;;;;;;;;;;1041293;28;2774;-52
2023/01/20 02:00:57;;;;;;;;;;;;;;;;;;1040939;28;4383;-48
2023/01/20 02:01:28;;;;;;;;;;;;;;;;;;1041372;28;3107;-49
2023/01/20 02:01:58;;;;;;;;;;;;;;;;;;1040458;28;4031;-48
2023/01/20 02:02:28;;;;;;;;;;;;;;;;;;1041683;28;2052;-50
2023/01/20 02:02:59;;;;;;;;;;;;;;;;;;1041981;28;4157;-47
2023/01/20 02:03:37;;;;;;;;;;;;;;;;;;1043417;28;1678;-48
2023/01/20 02:04:09;;;;;;;;;;;;;;;;;;1041920;28;3963;-47
2023/01/20 02:04:41;;;;;;;;;;;;;;;;;;1040842;28;1779;-47
2023/01/20 02:05:12;;;;;;;;;;;;;;;;;;1041289;28;4405;-48
2023/01/20 02:05:43;;;;;;;;;;;;;;;;;;1040512;28;2022;-46
2023/01/20 02:06:14;;;;;;;;;;;;;;;;;;1038050;28;3740;-50
2023/01/20 02:06:45;;;;;;;;;;;;;;;;;;1041106;28;2778;-48
2023/01/20 02:07:18;;;;;;;;;;;;;;;;;;1042255;28;4391;-45
2023/01/20 02:07:48;;;;;;;;;;;;;;;;;;1040413;28;2947;-48
2023/01/20 02:08:19;;;;;;;;;;;;;;;;;;1040673;28;3801;-47
2023/01/20 02:08:49;;;;;;;;;;;;;;;;;;1040149;28;2577;-50
2023/01/20 02:09:20;;;;;;;;;;;;;;;;;;1039505;28;3872;-48
2023/01/20 02:09:50;;;;;;;;;;;;;;;;;;1041903;28;2081;-48
2023/01/20 02:10:21;;;;;;;;;;;;;;;;;;1041271;28;4159;-52
2023/01/20 02:10:51;;;;;;;;;;;;;;;;;;1040903;28;2802;-50
2023/01/20 02:11:21;;;;;;;;;;;;;;;;;;1042365;28;4143;-47
2023/01/20 02:12:08;;;;;;;;;;;;;;;;;;1038958;28;3019;-47
2023/01/20 02:12:48;;;;;;;;;;;;;;;;;;1042458;28;4009;-48
2023/01/20 02:13:18;;;;;;;;;;;;;;;;;;1040891;28;4160;-48
2023/01/20 02:13:48;;;;;;;;;;;;;;;;;;1041541;28;2087;-49
2023/01/20 02:14:22;;;;;;;;;;;;;;;;;;1039619;28;3991;-47
2023/01/20 02:14:54;;;;;;;;;;;;;;;;;;1042854;28;2082;-49
2023/01/20 02:15:29;;;;;;;;;;;;;;;;;;1041255;28;3901;-48
2023/01/20 02:16:10;;;;;;;;;;;;;;;;;;1037964;28;4205;-53
2023/01/20 02:17:03;;;;;;;;;;;;;;;;;;1039370;28;2814;-48
2023/01/20 02:17:52;;;;;;;;;;;;;;;;;;1042766;28;3962;-51
2023/01/20 02:18:35;;;;;;;;;;;;;;;;;;1045763;28;4393;-47
2023/01/20 02:19:08;;;;;;;;;;;;;;;;;;1043204;28;4404;-48
2023/01/20 02:19:44;;;;;;;;;;;;;;;;;;1043798;28;2164;-47
2023/01/20 02:20:17;;;;;;;;;;;;;;;;;;1043463;28;3847;-48
2023/01/20 02:21:01;;;;;;;;;;;;;;;;;;1045043;28;2923;-50
2023/01/20 02:21:43;;;;;;;;;;;;;;;;;;1043326;28;3957;-47
2023/01/20 02:22:32;;;;;;;;;;;;;;;;;;1043044;28;3864;-46
2023/01/20 02:23:21;;;;;;;;;;;;;;;;;;1044360;28;3988;-48
2023/01/20 02:24:06;;;;;;;;;;;;;;;;;;1045311;28;2668;-49
2023/01/20 02:25:03;;;;;;;;;;;;;;;;;;1043642;28;4182;-50
2023/01/20 02:25:34;;;;;;;;;;;;;;;;;;1044217;28;3711;-46
2023/01/20 02:26:29;;;;;;;;;;;;;;;;;;1044346;28;3905;-48
2023/01/20 02:27:12;;;;;;;;;;;;;;;;;;1044284;28;3780;-47
2023/01/20 02:27:51;;;;;;;;;;;;;;;;;;1043523;28;2203;-47
2023/01/20 02:28:42;;;;;;;;;;;;;;;;;;1042739;28;3930;-47
2023/01/20 02:29:23;;;;;;;;;;;;;;;;;;1042767;28;3972;-49
2023/01/20 02:30:10;;;;;;;;;;;;;;;;;;1043591;28;2092;-51
2023/01/20 02:30:59;;;;;;;;;;;;;;;;;;1045903;28;4124;-48
2023/01/20 02:31:40;;;;;;;;;;;;;;;;;;1045269;28;3926;-48
2023/01/20 02:32:29;;;;;;;;;;;;;;;;;;1043211;28;3796;-50
2023/01/20 02:33:35;;;;;;;;;;;;;;;;;;1042972;28;3941;-50
2023/01/20 02:34:11;;;;;;;;;;;;;;;;;;1029119;28;4037;-49
2023/01/20 02:34:47;;;;;;;;;;;;;;;;;;1028796;28;2601;-50
2023/01/20 02:35:23;;;;;;;;;;;;;;;;;;1028517;28;3749;-47
2023/01/20 02:35:53;;;;;;;;;;;;;;;;;;1027430;28;2722;-50
2023/01/20 02:36:32;;;;;;;;;;;;;;;;;;1028681;28;3840;-50
2023/01/20 02:37:09;;;;;;;;;;;;;;;;;;1044535;28;3949;-48
2023/01/20 02:37:59;;;;;;;;;;;;;;;;;;1042741;28;1722;-49
2023/01/20 02:38:41;;;;;;;;;;;;;;;;;;1042827;28;4354;-46
2023/01/20 02:39:24;;;;;;;;;;;;;;;;;;1040829;28;3760;-51
2023/01/20 02:40:07;;;;;;;;;;;;;;;;;;1039200;28;4155;-49
2023/01/20 02:40:37;;;;;;;;;;;;;;;;;;1041916;28;2170;-49
2023/01/20 02:41:11;;;;;;;;;;;;;;;;;;1043757;28;3889;-47
2023/01/20 02:42:02;;;;;;;;;;;;;;;;;;1044351;28;2989;-51
2023/01/20 02:42:38;;;;;;;;;;;;;;;;;;1044382;28;3930;-50
2023/01/20 02:43:08;;;;;;;;;;;;;;;;;;1040274;28;4103;-50
2023/01/20 02:43:44;;;;;;;;;;;;;;;;;;1042694;28;2606;-49
2023/01/20 02:44:18;;;;;;;;;;;;;;;;;;1040126;28;3902;-48
2023/01/20 02:45:07;;;;;;;;;;;;;;;;;;1041603;28;2190;-49
2023/01/20 02:45:42;;;;;;;;;;;;;;;;;;1043474;28;3737;-51
2023/01/20 02:46:22;;;;;;;;;;;;;;;;;;1042608;28;3883;-48
2023/01/20 02:46:57;;;;;;;;;;;;;;;;;;1044177;28;2912;-48
2023/01/20 02:47:37;;;;;;;;;;;;;;;;;;1044357;28;3945;-48
2023/01/20 02:48:19;;;;;;;;;;;;;;;;;;1046811;28;4010;-48
2023/01/20 02:48:57;;;;;;;;;;;;;;;;;;1044671;28;2574;-48
2023/01/20 02:49:31;;;;;;;;;;;;;;;;;;1045345;28;3833;-49
2023/01/20 02:50:23;;;;;;;;;;;;;;;;;;1042929;28;3902;-46
2023/01/20 02:51:01;;;;;;;;;;;;;;;;;;1044576;28;1689;-50
2023/01/20 02:51:37;;;;;;;;;;;;;;;;;;1039635;28;4124;-48
2023/01/20 02:52:13;;;;;;;;;;;;;;;;;;1041661;28;3843;-49
2023/01/20 02:52:47;;;;;;;;;;;;;;;;;;1040732;28;1973;-46
2023/01/20 02:53:18;;;;;;;;;;;;;;;;;;1040455;28;4424;-48
2023/01/20 02:54:03;;;;;;;;;;;;;;;;;;1043646;28;3280;-48
2023/01/20 02:54:35;;;;;;;;;;;;;;;;;;1043355;28;3892;-50
2023/01/20 02:55:07;;;;;;;;;;;;;;;;;;1041920;28;3806;-49
2023/01/20 02:55:45;;;;;;;;;;;;;;;;;;1045234;28;2731;-49
2023/01/20 02:56:17;;;;;;;;;;;;;;;;;;1043747;28;4053;-46
2023/01/20 02:56:48;;;;;;;;;;;;;;;;;;1042634;28;1973;-47
2023/01/20 02:57:23;;;;;;;;;;;;;;;;;;1043589;28;4314;-47
2023/01/20 02:57:57;;;;;;;;;;;;;;;;;;1042989;28;1705;-50
2023/01/20 02:58:33;;;;;;;;;;;;;;;;;;1042958;28;3956;-47
2023/01/20 02:59:07;;;;;;;;;;;;;;;;;;1045453;28;3982;-47
2023/01/20 02:59:41;;;;;;;;;;;;;;;;;;1046203;28;1816;-49
2023/01/20 03:00:13;;;;;;;;;;;;;;;;;;1043088;28;4224;-45
2023/01/20 03:00:47;;;;;;;;;;;;;;;;;;1043509;28;1689;-48
2023/01/20 03:01:21;;;;;;;;;;;;;;;;;;1043207;28;4400;-49
2023/01/20 03:02:11;;;;;;;;;;;;;;;;;;1044234;28;2026;-51
2023/01/20 03:02:44;;;;;;;;;;;;;;;;;;1044224;28;3829;-47
2023/01/20 03:03:17;;;;;;;;;;;;;;;;;;1041625;28;3838;-49
2023/01/20 03:03:49;;;;;;;;;;;;;;;;;;1043505;28;1619;-47
2023/01/20 03:04:22;;;;;;;;;;;;;;;;;;1044141;28;3998;-50
2023/01/20 03:04:56;;;;;;;;;;;;;;;;;;1044048;28;1968;-47
2023/01/20 03:05:32;;;;;;;;;;;;;;;;;;1043415;28;3992;-47
2023/01/20 03:06:03;;;;;;;;;;;;;;;;;;1044577;28;5654;-47
2023/01/20 03:06:36;;;;;;;;;;;;;;;;;;1043992;28;2057;-48
2023/01/20 03:07:08;;;;;;;;;;;;;;;;;;1043480;28;3789;-48
2023/01/20 03:07:40;;;;;;;;;;;;;;;;;;1043378;28;2560;-50
2023/01/20 03:08:11;;;;;;;;;;;;;;;;;;1043144;28;4161;-48
2023/01/20 03:08:43;;;;;;;;;;;;;;;;;;1045912;28;2360;-48
2023/01/20 03:09:16;;;;;;;;;;;;;;;;;;1044726;28;4107;-46
2023/01/20 03:09:48;;;;;;;;;;;;;;;;;;1044280;28;2588;-48
2023/01/20 03:10:20;;;;;;;;;;;;;;;;;;1044914;28;4026;-46
2023/01/20 03:10:51;;;;;;;;;;;;;;;;;;1044585;28;2527;-48
2023/01/20 03:11:22;;;;;;;;;;;;;;;;;;1042626;28;4051;-48
2023/01/20 03:12:12;;;;;;;;;;;;;;;;;;1043069;28;2010;-48
2023/01/20 03:12:53;;;;;;;;;;;;;;;;;;1045291;28;3881;-48
2023/01/20 03:13:36;;;;;;;;;;;;;;;;;;1043711;28;3822;-52
2023/01/20 03:14:09;;;;;;;;;;;;;;;;;;1043547;28;3854;-47
2023/01/20 03:14:39;;;;;;;;;;;;;;;;;;1042899;28;1754;-48
2023/01/20 03:15:10;;;;;;;;;;;;;;;;;;1042440;28;4197;-47
2023/01/20 03:15:56;;;;;;;;;;;;;;;;;;1042319;28;2867;-46
2023/01/20 03:16:27;;;;;;;;;;;;;;;;;;1043343;28;3718;-47
2023/01/20 03:16:57;;;;;;;;;;;;;;;;;;1044406;28;4033;-50
2023/01/20 03:17:28;;;;;;;;;;;;;;;;;;1044671;28;2685;-49
2023/01/20 03:17:58;;;;;;;;;;;;;;;;;;1041344;28;4039;-49
2023/01/20 03:18:29;;;;;;;;;;;;;;;;;;1039220;28;2794;-51
2023/01/20 03:18:59;;;;;;;;;;;;;;;;;;1039703;28;4236;-47
2023/01/20 03:19:30;;;;;;;;;;;;;;;;;;1035955;28;2643;-48
2023/01/20 03:20:00;;;;;;;;;;;;;;;;;;1038370;28;4404;-46
2023/01/20 03:20:30;;;;;;;;;;;;;;;;;;1039710;28;2189;-49
2023/01/20 03:21:02;;;;;;;;;;;;;;;;;;1040349;28;4371;-46
2023/01/20 03:21:32;;;;;;;;;;;;;;;;;;1043445;28;2031;-49
2023/01/20 03:22:03;;;;;;;;;;;;;;;;;;1044260;28;4054;-47
2023/01/20 03:22:33;;;;;;;;;;;;;;;;;;1043164;28;2711;-49
2023/01/20 03:23:03;;;;;;;;;;;;;;;;;;1043801;28;4283;-45
2023/01/20 03:23:36;;;;;;;;;;;;;;;;;;1043451;28;2242;-47
2023/01/20 03:24:06;;;;;;;;;;;;;;;;;;1042965;28;3800;-50
2023/01/20 03:24:37;;;;;;;;;;;;;;;;;;1044600;28;2421;-48
2023/01/20 03:25:08;;;;;;;;;;;;;;;;;;1044990;28;4084;-50
2023/01/20 03:25:39;;;;;;;;;;;;;;;;;;1044600;28;2831;-52
2023/01/20 03:26:11;;;;;;;;;;;;;;;;;;1044291;28;3894;-47
2023/01/20 03:26:41;;;;;;;;;;;;;;;;;;1044849;28;3050;-51
2023/01/20 03:27:12;;;;;;;;;;;;;;;;;;1045104;28;3948;-51
2023/01/20 03:27:42;;;;;;;;;;;;;;;;;;1044203;28;2771;-50
2023/01/20 03:28:12;;;;;;;;;;;;;;;;;;1043850;28;4445;-49
2023/01/20 03:28:43;;;;;;;;;;;;;;;;;;1045293;28;2151;-46
2023/01/20 03:29:17;;;;;;;;;;;;;;;;;;1041920;28;4256;-48
2023/01/20 03:29:47;;;;;;;;;;;;;;;;;;1045467;28;2899;-50
2023/01/20 03:30:18;;;;;;;;;;;;;;;;;;1043116;28;4247;-46
2023/01/20 03:30:48;;;;;;;;;;;;;;;;;;1044707;28;1979;-50
2023/01/20 03:31:23;;;;;;;;;;;;;;;;;;1042566;28;3800;-50
2023/01/20 03:31:55;;;;;;;;;;;;;;;;;;1042939;28;2040;-49
2023/01/20 03:32:25;;;;;;;;;;;;;;;;;;1043005;28;4004;-48
2023/01/20 03:32:56;;;;;;;;;;;;;;;;;;1043451;28;4074;-48
2023/01/20 03:33:26;;;;;;;;;;;;;;;;;;1044525;28;2698;-47
2023/01/20 03:33:58;;;;;;;;;;;;;;;;;;1045289;28;4399;-48
2023/01/20 03:34:32;;;;;;;;;;;;;;;;;;1043900;28;2240;-50
2023/01/20 03:35:02;;;;;;;;;;;;;;;;;;1043946;28;4117;-49
2023/01/20 03:35:33;;;;;;;;;;;;;;;;;;1043547;28;2839;-47
2023/01/20 03:36:03;;;;;;;;;;;;;;;;;;1039488;28;3887;-48
2023/01/20 03:36:33;;;;;;;;;;;;;;;;;;1040857;28;2604;-46
2023/01/20 03:37:04;;;;;;;;;;;;;;;;;;1038602;28;3952;-47
2023/01/20 03:37:35;;;;;;;;;;;;;;;;;;1039121;28;2606;-47
2023/01/20 03:38:05;;;;;;;;;;;;;;;;;;1042955;28;3823;-50
2023/01/20 03:38:35;;;;;;;;;;;;;;;;;;1044259;28;2777;-49
2023/01/20 03:39:06;;;;;;;;;;;;;;;;;;1041563;28;3887;-47
2023/01/20 03:39:38;;;;;;;;;;;;;;;;;;1044985;28;2556;-48
2023/01/20 03:40:09;;;;;;;;;;;;;;;;;;1045050;28;4013;-47
2023/01/20 03:40:44;;;;;;;;;;;;;;;;;;1044746;28;2694;-48
2023/01/20 03:41:17;;;;;;;;;;;;;;;;;;1045388;28;4001;-47
2023/01/20 03:41:59;;;;;;;;;;;;;;;;;;1042858;28;2450;-48
2023/01/20 03:42:32;;;;;;;;;;;;;;;;;;1042743;28;4079;-49
2023/01/20 03:43:11;;;;;;;;;;;;;;;;;;1044999;28;4213;-50
2023/01/20 03:43:50;;;;;;;;;;;;;;;;;;1045112;28;1938;-50
2023/01/20 03:44:23;;;;;;;;;;;;;;;;;;1044270;28;3981;-50
2023/01/20 03:45:00;;;;;;;;;;;;;;;;;;1046835;28;1761;-49
2023/01/20 03:45:52;;;;;;;;;;;;;;;;;;1039162;28;3796;-47
2023/01/20 03:46:27;;;;;;;;;;;;;;;;;;1039363;28;4091;-48
2023/01/20 03:46:58;;;;;;;;;;;;;;;;;;1037133;28;4068;-50
2023/01/20 03:47:37;;;;;;;;;;;;;;;;;;1038371;28;2762;-46
2023/01/20 03:48:11;;;;;;;;;;;;;;;;;;1043160;28;3926;-47
2023/01/20 03:48:48;;;;;;;;;;;;;;;;;;1044034;28;2647;-48